Time;durP1;ratioP1;P1;durP2;ratioP2;P2;SDS_P1;SDS_P2;PMS_P1;PMS_P2;Temp;Humidity;BMP_temperature;BMP_pressure;BME280_temperature;BME280_humidity;BME280_pressure;Samples;Min_cycle;Max_cycle;Signal;HPM_P1;HPM_P2
2022/03/12 00:02:20;;;;;;;5.07;3.20;;;17.50;29.70;16.60;101234.00;;;;5036660;28;20045;-64
2022/03/12 00:05:08;;;;;;;4.85;3.00;;;17.50;29.70;16.60;101234.00;;;;5050169;28;20096;-64
2022/03/12 00:07:54;;;;;;;4.00;2.75;;;17.50;29.70;16.60;101230.00;;;;5049957;28;20044;-64
2022/03/12 00:10:43;;;;;;;3.83;3.03;;;17.50;29.70;16.60;101224.00;;;;5044079;28;20040;-64
2022/03/12 00:13:29;;;;;;;5.07;3.10;;;17.50;29.70;16.60;101221.00;;;;5053141;28;20370;-64
2022/03/12 00:16:18;;;;;;;3.75;2.90;;;17.50;29.70;16.60;101218.00;;;;5048688;28;20049;-64
2022/03/12 00:19:05;;;;;;;5.07;3.35;;;17.50;29.70;16.60;101220.00;;;;5039252;28;20032;-64
2022/03/12 00:21:51;;;;;;;3.90;2.97;;;17.50;29.70;16.60;101225.00;;;;5057856;28;20049;-64
2022/03/12 00:24:48;;;;;;;3.70;2.90;;;17.50;29.70;16.60;101214.00;;;;5057257;28;20040;-64
2022/03/12 00:27:34;;;;;;;4.38;3.17;;;17.50;29.70;16.60;101220.00;;;;5057623;28;20033;-64
2022/03/12 00:30:23;;;;;;;4.88;3.00;;;17.50;29.70;16.60;101216.00;;;;5061015;28;20134;-64
2022/03/12 00:33:09;;;;;;;4.28;3.08;;;17.50;29.70;16.60;101219.00;;;;5059568;28;20044;-64
2022/03/12 00:35:55;;;;;;;3.22;2.58;;;17.50;29.70;16.60;101214.00;;;;5052102;28;20051;-64
2022/03/12 00:38:41;;;;;;;3.72;2.95;;;17.50;29.70;16.60;101216.00;;;;5057958;28;20036;-64
2022/03/12 00:41:27;;;;;;;4.07;3.20;;;17.50;30.20;16.60;101214.00;;;;5051847;28;20052;-64
2022/03/12 00:44:17;;;;;;;4.15;3.10;;;17.50;29.70;16.60;101214.00;;;;5054710;28;20103;-64
2022/03/12 00:47:04;;;;;;;4.10;2.83;;;17.50;29.70;16.60;101210.00;;;;5045560;28;20093;-64
2022/03/12 00:49:50;;;;;;;4.65;2.95;;;17.50;29.70;16.60;101216.00;;;;5051586;28;20053;-64
2022/03/12 00:52:36;;;;;;;4.25;3.58;;;17.50;29.70;16.60;101221.00;;;;5060688;28;20079;-64
2022/03/12 00:55:22;;;;;;;5.38;3.63;;;17.50;29.80;16.60;101203.00;;;;5038830;28;20053;-64
2022/03/12 00:58:08;;;;;;;4.30;3.03;;;17.50;29.80;16.60;101217.00;;;;5038407;28;20037;-65
2022/03/12 01:00:54;;;;;;;4.07;3.03;;;17.50;29.80;16.60;101212.00;;;;5061233;28;20042;-64
2022/03/12 01:03:40;;;;;;;4.15;2.97;;;17.50;29.80;16.60;101214.00;;;;5058625;28;20063;-64
2022/03/12 01:06:26;;;;;;;3.97;2.88;;;17.40;29.70;16.60;101207.00;;;;5046240;28;20045;-64
2022/03/12 01:09:12;;;;;;;4.82;3.03;;;17.50;29.70;16.60;101214.00;;;;5052185;28;20052;-64
2022/03/12 01:11:58;;;;;;;5.00;3.40;;;17.50;29.70;16.60;101213.00;;;;5056077;28;20049;-64
2022/03/12 01:14:44;;;;;;;3.33;2.75;;;17.40;29.70;16.60;101225.00;;;;5056167;28;20036;-64
2022/03/12 01:17:34;;;;;;;5.28;3.08;;;17.40;29.70;16.50;101221.00;;;;5053784;28;20047;-64
2022/03/12 01:20:21;;;;;;;4.05;3.10;;;17.50;29.80;16.60;101224.00;;;;5061397;28;20040;-64
2022/03/12 01:23:08;;;;;;;4.18;3.10;;;17.40;29.70;16.50;101219.00;;;;5061431;28;20036;-64
2022/03/12 01:25:58;;;;;;;3.60;2.60;;;17.40;29.80;16.50;101223.00;;;;5061285;28;20048;-64
2022/03/12 01:28:45;;;;;;;5.05;3.47;;;17.40;29.80;16.50;101225.00;;;;5061294;28;20398;-64
2022/03/12 01:31:31;;;;;;;3.90;3.28;;;17.50;29.80;16.50;101220.00;;;;5041617;28;20053;-64
2022/03/12 01:34:17;;;;;;;4.47;3.30;;;17.40;29.70;16.50;101218.00;;;;5043658;28;20037;-64
2022/03/12 01:37:04;;;;;;;3.85;2.90;;;17.40;29.70;16.50;101222.00;;;;5051905;28;20036;-64
2022/03/12 01:39:50;;;;;;;4.97;3.47;;;17.40;29.70;16.50;101220.00;;;;5053742;28;20041;-64
2022/03/12 01:42:37;;;;;;;6.07;3.13;;;17.40;29.80;16.50;101226.00;;;;5043603;28;20131;-64
2022/03/12 01:45:28;;;;;;;4.50;3.20;;;17.40;29.80;16.50;101228.00;;;;5055692;28;20148;-64
2022/03/12 01:48:14;;;;;;;4.38;2.80;;;17.40;29.80;16.50;101222.00;;;;5044002;28;20058;-64
2022/03/12 01:51:00;;;;;;;4.65;3.08;;;17.40;29.80;16.50;101230.00;;;;5056747;28;20041;-64
2022/03/12 01:53:46;;;;;;;4.70;3.30;;;17.40;29.80;16.50;101223.00;;;;5043502;28;20499;-64
2022/03/12 01:56:34;;;;;;;4.88;3.13;;;17.40;29.80;16.50;101222.00;;;;5054183;28;20040;-64
2022/03/12 01:59:21;;;;;;;4.90;2.80;;;17.40;29.80;16.50;101221.00;;;;5055913;28;20032;-64
2022/03/12 02:02:13;;;;;;;3.97;3.13;;;17.40;29.80;16.50;101230.00;;;;5052684;28;20041;-64
2022/03/12 02:05:01;;;;;;;6.88;3.58;;;17.40;29.90;16.50;101238.00;;;;5055158;28;20569;-64
2022/03/12 02:07:47;;;;;;;;;;;17.40;29.90;16.50;101234.00;;;;5057200;28;20115;-64
2022/03/12 02:10:36;;;;;;;4.13;2.67;;;17.40;30.00;16.40;101228.00;;;;5054708;28;19927;-64
2022/03/12 02:13:22;;;;;;;4.88;3.17;;;17.40;29.90;16.40;101231.00;;;;5056823;28;20457;-64
2022/03/12 02:16:09;;;;;;;4.85;3.08;;;17.40;29.90;16.40;101221.00;;;;5058155;28;20530;-64
2022/03/12 02:18:55;;;;;;;3.58;2.88;;;17.40;29.90;16.40;101229.00;;;;5057070;28;20040;-64
2022/03/12 02:21:59;;;;;;;5.38;2.90;;;17.40;29.90;16.40;101227.00;;;;5042954;28;20036;-64
2022/03/12 02:24:45;;;;;;;5.75;3.47;;;17.30;29.90;16.40;101220.00;;;;5053992;28;20050;-64
2022/03/12 02:27:32;;;;;;;4.32;3.25;;;17.30;29.90;16.40;101228.00;;;;5054513;28;20095;-64
2022/03/12 02:30:19;;;;;;;6.25;3.88;;;17.30;29.90;16.40;101231.00;;;;5055778;28;20037;-64
2022/03/12 02:33:05;;;;;;;4.03;3.20;;;17.30;29.90;16.40;101227.00;;;;5055222;28;20135;-64
2022/03/12 02:35:53;;;;;;;4.30;3.30;;;17.30;29.90;16.40;101229.00;;;;5056231;28;20106;-64
2022/03/12 02:38:40;;;;;;;4.60;3.20;;;17.30;29.90;16.40;101223.00;;;;5052757;28;21121;-64
2022/03/12 02:41:26;;;;;;;4.32;2.97;;;17.30;29.90;16.40;101226.00;;;;5053554;28;20068;-64
2022/03/12 02:44:22;;;;;;;3.25;2.80;;;17.30;29.90;16.40;101222.00;;;;5035629;28;20483;-64
2022/03/12 02:47:20;;;;;;;5.03;3.00;;;17.30;29.90;16.40;101235.00;;;;5054604;28;20127;-64
2022/03/12 02:50:08;;;;;;;4.63;3.55;;;17.30;29.90;16.40;101235.00;;;;5055151;28;20052;-64
2022/03/12 02:52:54;;;;;;;7.40;3.00;;;17.30;29.90;16.40;101230.00;;;;5035269;28;20102;-64
2022/03/12 02:55:41;;;;;;;4.05;3.03;;;17.30;29.90;16.40;101229.00;;;;5052395;28;20040;-64
2022/03/12 02:58:27;;;;;;;3.97;2.97;;;17.30;29.90;16.40;101234.00;;;;5041721;28;20494;-64
2022/03/12 03:01:14;;;;;;;4.40;3.25;;;17.30;29.90;16.40;101236.00;;;;5052420;28;20041;-64
2022/03/12 03:04:00;;;;;;;7.03;3.58;;;17.30;30.50;16.40;101239.00;;;;5050443;28;20059;-64
2022/03/12 03:06:46;;;;;;;4.60;3.10;;;17.30;29.90;16.40;101218.00;;;;5053083;28;20482;-64
2022/03/12 03:09:32;;;;;;;5.20;3.55;;;17.20;29.80;16.40;101234.00;;;;5061041;28;20049;-64
2022/03/12 03:12:20;;;;;;;3.60;3.03;;;17.30;29.80;16.40;101232.00;;;;5051804;28;20044;-64
2022/03/12 03:15:07;;;;;;;;;;;17.30;29.80;16.30;101235.00;;;;5039686;28;20517;-64
2022/03/12 03:17:53;;;;;;;5.07;2.97;;;17.30;30.00;16.30;101235.00;;;;5035484;28;19982;-64
2022/03/12 03:20:39;;;;;;;7.85;3.40;;;17.30;29.80;16.30;101240.00;;;;5051080;28;20045;-64
2022/03/12 03:23:28;;;;;;;5.07;3.47;;;17.30;29.80;16.30;101246.00;;;;5051891;28;20394;-64
2022/03/12 03:26:19;;;;;;;3.33;2.83;;;17.20;29.80;16.30;101242.00;;;;5037037;28;20071;-64
2022/03/12 03:29:05;;;;;;;4.10;3.20;;;17.30;29.80;16.30;101244.00;;;;5039686;28;20064;-64
2022/03/12 03:31:52;;;;;;;3.78;3.00;;;17.20;29.80;16.30;101240.00;;;;5045862;28;20057;-64
2022/03/12 03:34:39;;;;;;;4.13;3.40;;;17.20;29.80;16.30;101248.00;;;;5058202;28;20036;-64
2022/03/12 03:37:25;;;;;;;4.45;2.92;;;17.20;29.70;16.30;101257.00;;;;5053748;28;20037;-64
2022/03/12 03:40:11;;;;;;;4.95;3.33;;;17.20;29.70;16.30;101249.00;;;;5052484;28;20037;-64
2022/03/12 03:42:57;;;;;;;3.90;3.03;;;17.20;29.70;16.30;101252.00;;;;5052736;28;20330;-64
2022/03/12 03:45:45;;;;;;;5.05;3.13;;;17.30;29.80;16.30;101254.00;;;;5034998;28;20036;-64
2022/03/12 03:48:38;;;;;;;5.53;2.92;;;17.20;29.70;16.30;101260.00;;;;5039643;28;20131;-64
2022/03/12 03:51:24;;;;;;;5.03;2.80;;;17.20;29.80;16.30;101262.00;;;;5037745;28;20048;-64
2022/03/12 03:54:11;;;;;;;3.38;3.03;;;17.20;29.70;16.30;101267.00;;;;5053703;28;20037;-64
2022/03/12 03:56:57;;;;;;;4.20;3.13;;;17.20;29.80;16.30;101275.00;;;;5052175;28;20033;-64
2022/03/12 03:59:43;;;;;;;3.80;2.92;;;17.20;29.70;16.30;101276.00;;;;5053231;28;20756;-64
2022/03/12 04:02:29;;;;;;;4.50;3.33;;;17.20;29.80;16.30;101283.00;;;;5051662;28;20049;-64
2022/03/12 04:05:16;;;;;;;3.80;2.97;;;17.20;30.20;16.30;101278.00;;;;5053247;28;20052;-64
2022/03/12 04:08:07;;;;;;;5.40;3.20;;;17.20;29.70;16.30;101276.00;;;;5050105;28;20041;-64
2022/03/12 04:10:53;;;;;;;4.75;2.95;;;17.20;29.70;16.30;101278.00;;;;5036195;28;20087;-64
2022/03/12 04:13:39;;;;;;;3.88;2.67;;;17.20;29.70;16.30;101284.00;;;;5050306;28;20036;-64
2022/03/12 04:16:25;;;;;;;3.47;2.75;;;17.20;29.70;16.30;101282.00;;;;5041540;28;20044;-64
2022/03/12 04:19:13;;;;;;;4.65;2.78;;;17.20;29.70;16.30;101287.00;;;;5049960;28;20037;-64
2022/03/12 04:22:01;;;;;;;6.35;3.28;;;17.20;29.70;16.30;101283.00;;;;5051964;28;20094;-64
2022/03/12 04:24:47;;;;;;;3.50;2.85;;;17.10;29.70;16.30;101288.00;;;;5033967;28;20048;-64
2022/03/12 04:27:34;;;;;;;3.65;2.88;;;17.20;29.70;16.30;101287.00;;;;5053723;28;20041;-64
2022/03/12 04:30:20;;;;;;;3.42;2.70;;;17.20;29.70;16.30;101285.00;;;;5057915;28;20047;-64
2022/03/12 04:33:07;;;;;;;4.03;3.17;;;17.10;29.70;16.30;101289.00;;;;5052182;28;20036;-64
2022/03/12 04:35:53;;;;;;;3.28;2.55;;;17.20;29.70;16.30;101294.00;;;;5038801;28;20114;-64
2022/03/12 04:38:40;;;;;;;5.07;2.85;;;17.20;29.70;16.30;101292.00;;;;5046590;28;20108;-64
2022/03/12 04:41:30;;;;;;;4.75;2.88;;;17.20;29.70;16.30;101299.00;;;;5051897;28;20036;-64
2022/03/12 04:44:16;;;;;;;4.38;2.90;;;17.10;29.60;16.30;101300.00;;;;5038682;28;20048;-64
2022/03/12 04:47:02;;;;;;;4.28;3.03;;;17.10;29.70;16.30;101298.00;;;;5053427;28;20492;-64
2022/03/12 04:49:49;;;;;;;4.35;2.65;;;17.10;29.70;16.30;101300.00;;;;5049298;28;20164;-64
2022/03/12 04:52:35;;;;;;;3.50;3.03;;;17.10;29.60;16.30;101305.00;;;;5054114;28;20044;-64
2022/03/12 04:55:22;;;;;;;4.38;2.58;;;17.10;29.70;16.30;101299.00;;;;5058213;28;20406;-64
2022/03/12 04:58:09;;;;;;;4.40;3.27;;;17.10;29.60;16.30;101300.00;;;;5050890;28;20045;-64
2022/03/12 05:00:56;;;;;;;4.65;3.00;;;17.10;29.60;16.30;101294.00;;;;5057231;28;20485;-64
2022/03/12 05:03:43;;;;;;;3.80;3.05;;;17.10;29.60;16.30;101300.00;;;;5040076;28;20053;-64
2022/03/12 05:06:29;;;;;;;3.65;2.72;;;17.10;29.60;16.20;101297.00;;;;5056172;28;20079;-64
2022/03/12 05:09:15;;;;;;;5.00;2.80;;;17.10;29.70;16.20;101306.00;;;;5052785;28;20560;-64
2022/03/12 05:12:05;;;;;;;3.95;2.78;;;17.10;29.60;16.20;101310.00;;;;5052124;28;20045;-64
2022/03/12 05:14:53;;;;;;;4.75;3.13;;;17.10;29.70;16.20;101314.00;;;;5042800;28;20045;-64
2022/03/12 05:17:49;;;;;;;4.15;3.00;;;17.10;29.70;16.20;101311.00;;;;5059937;28;20147;-64
2022/03/12 05:20:36;;;;;;;3.70;2.78;;;17.10;29.70;16.20;101313.00;;;;5046645;28;20783;-64
2022/03/12 05:23:22;;;;;;;4.10;2.75;;;17.10;29.70;16.20;101313.00;;;;5041220;28;20049;-64
2022/03/12 05:26:08;;;;;;;4.15;3.10;;;17.10;29.70;16.20;101306.00;;;;5053454;28;20049;-64
2022/03/12 05:28:54;;;;;;;6.40;3.08;;;17.10;29.70;16.20;101315.00;;;;5060850;28;20040;-64
2022/03/12 05:31:40;;;;;;;4.32;2.60;;;17.10;29.70;16.20;101328.00;;;;5061408;28;20532;-64
2022/03/12 05:34:26;;;;;;;4.28;3.30;;;17.10;29.70;16.20;101323.00;;;;5057413;28;20048;-64
2022/03/12 05:37:13;;;;;;;3.40;2.53;;;17.10;29.70;16.20;101337.00;;;;5060197;28;20051;-64
2022/03/12 05:39:59;;;;;;;3.28;2.60;;;17.10;29.70;16.20;101334.00;;;;5056462;28;20406;-64
2022/03/12 05:42:48;;;;;;;3.45;2.65;;;17.10;29.70;16.20;101332.00;;;;5041802;28;20098;-64
2022/03/12 05:45:34;;;;;;;2.97;2.58;;;17.10;29.70;16.20;101340.00;;;;5043602;28;20045;-64
2022/03/12 05:48:20;;;;;;;4.35;2.30;;;17.00;29.70;16.20;101345.00;;;;5057700;28;20044;-64
2022/03/12 05:51:09;;;;;;;5.10;3.20;;;17.10;29.70;16.20;101338.00;;;;5044598;28;20048;-64
2022/03/12 05:53:55;;;;;;;4.50;3.03;;;17.10;29.70;16.20;101339.00;;;;5057127;28;20086;-64
2022/03/12 05:56:41;;;;;;;3.97;2.80;;;17.20;29.70;16.20;101344.00;;;;5048693;28;20504;-64
2022/03/12 05:59:27;;;;;;;3.90;3.17;;;17.10;29.70;16.20;101339.00;;;;5054630;28;20044;-64
2022/03/12 06:02:13;;;;;;;4.10;2.95;;;17.00;29.70;16.20;101333.00;;;;5057172;28;20040;-64
2022/03/12 06:04:59;;;;;;;3.38;2.60;;;17.10;29.70;16.20;101341.00;;;;5058762;28;20445;-64
2022/03/12 06:07:46;;;;;;;3.05;2.75;;;17.00;29.60;16.20;101351.00;;;;5055336;28;20040;-64
2022/03/12 06:10:37;;;;;;;4.20;2.80;;;17.00;29.60;16.20;101350.00;;;;5046725;28;20467;-64
2022/03/12 06:13:25;;;;;;;3.20;2.70;;;17.00;29.60;16.20;101344.00;;;;5054824;28;20136;-64
2022/03/12 06:16:11;;;;;;;4.25;2.92;;;17.00;29.60;16.20;101343.00;;;;5055257;28;20040;-64
2022/03/12 06:18:57;;;;;;;3.50;2.95;;;17.00;29.60;16.10;101358.00;;;;5052319;28;20044;-64
2022/03/12 06:21:44;;;;;;;3.75;2.70;;;17.10;29.70;16.20;101358.00;;;;5055352;28;20139;-64
2022/03/12 06:24:30;;;;;;;4.53;3.08;;;17.00;29.60;16.10;101358.00;;;;5052688;28;20150;-64
2022/03/12 06:27:17;;;;;;;3.35;2.88;;;17.00;29.60;16.20;101363.00;;;;5053973;28;20393;-64
2022/03/12 06:30:08;;;;;;;3.40;2.75;;;17.00;29.70;16.10;101362.00;;;;5055088;28;20143;-64
2022/03/12 06:32:56;;;;;;;3.63;2.55;;;17.00;29.70;16.10;101370.00;;;;5036678;28;20047;-64
2022/03/12 06:35:42;;;;;;;3.60;2.75;;;17.00;29.70;16.10;101377.00;;;;5041275;28;20059;-64
2022/03/12 06:38:30;;;;;;;4.25;2.80;;;17.00;29.60;16.10;101370.00;;;;5053500;28;20041;-64
2022/03/12 06:41:19;;;;;;;5.10;2.65;;;17.00;29.60;16.10;101373.00;;;;5037826;28;20049;-64
2022/03/12 06:44:06;;;;;;;4.35;3.03;;;17.00;29.70;16.10;101373.00;;;;5041935;28;20095;-64
2022/03/12 06:46:53;;;;;;;3.90;2.85;;;17.00;29.60;16.10;101382.00;;;;5032740;28;20044;-64
2022/03/12 06:49:39;;;;;;;4.45;3.13;;;17.00;29.60;16.10;101392.00;;;;5036195;28;20037;-64
2022/03/12 06:52:26;;;;;;;3.47;2.65;;;17.00;29.60;16.10;101393.00;;;;5035559;28;20083;-64
2022/03/12 06:55:12;;;;;;;3.70;2.93;;;16.90;29.60;16.10;101404.00;;;;5052676;28;20136;-64
2022/03/12 06:57:58;;;;;;;3.75;2.97;;;17.00;29.70;16.10;101392.00;;;;5051787;28;20064;-64
2022/03/12 07:00:44;;;;;;;3.08;2.67;;;17.00;29.60;16.10;101401.00;;;;5054062;28;20063;-64
2022/03/12 07:03:30;;;;;;;3.97;2.95;;;17.00;29.60;16.10;101402.00;;;;5051386;28;20051;-64
2022/03/12 07:06:16;;;;;;;4.32;3.10;;;17.00;29.60;16.10;101404.00;;;;5053800;28;20335;-64
2022/03/12 07:09:03;;;;;;;3.22;2.47;;;17.00;29.60;16.10;101401.00;;;;5042064;28;20120;-64
2022/03/12 07:11:50;;;;;;;4.43;2.67;;;17.00;29.70;16.10;101400.00;;;;5057584;28;20044;-64
2022/03/12 07:14:36;;;;;;;3.45;2.92;;;17.00;29.70;16.10;101401.00;;;;5050676;28;20253;-64
2022/03/12 07:17:22;;;;;;;5.00;3.05;;;17.00;29.70;16.10;101408.00;;;;5051582;28;20124;-64
2022/03/12 07:20:10;;;;;;;3.85;2.78;;;17.00;29.70;16.10;101412.00;;;;5053952;28;20510;-64
2022/03/12 07:22:56;;;;;;;3.92;3.17;;;17.00;29.60;16.10;101413.00;;;;5040636;28;20090;-64
2022/03/12 07:25:42;;;;;;;3.38;2.90;;;17.00;29.70;16.10;101409.00;;;;5049772;28;20333;-64
2022/03/12 07:28:28;;;;;;;4.50;2.92;;;17.00;29.70;16.10;101412.00;;;;5041559;28;20044;-64
2022/03/12 07:31:16;;;;;;;5.95;3.22;;;17.00;29.70;16.10;101410.00;;;;5049028;28;20029;-64
2022/03/12 07:34:02;;;;;;;4.22;2.47;;;17.00;29.70;16.10;101420.00;;;;5042797;28;20056;-65
2022/03/12 07:36:48;;;;;;;4.32;2.83;;;17.00;29.70;16.10;101424.00;;;;5054808;28;20574;-64
2022/03/12 07:39:35;;;;;;;4.03;3.15;;;17.00;29.70;16.10;101435.00;;;;5049521;28;20040;-64
2022/03/12 07:42:21;;;;;;;4.93;3.20;;;17.00;29.70;16.10;101431.00;;;;5052078;28;20214;-64
2022/03/12 07:45:09;;;;;;;5.28;3.10;;;17.00;30.20;16.10;101430.00;;;;5051606;28;20045;-64
2022/03/12 07:47:55;;;;;;;;;;;17.00;29.70;16.10;101443.00;;;;5039710;28;20482;-64
2022/03/12 07:50:42;;;;;;;4.60;2.70;;;17.00;29.80;16.10;101438.00;;;;5057103;28;20344;-65
2022/03/12 07:53:28;;;;;;;8.32;3.50;;;17.00;29.60;16.10;101438.00;;;;5052803;28;20152;-64
2022/03/12 07:56:16;;;;;;;7.28;3.58;;;17.00;29.80;16.10;101432.00;;;;5055032;28;20191;-64
2022/03/12 07:59:02;;;;;;;8.82;3.72;;;17.00;29.80;16.10;101437.00;;;;5048675;28;20045;-64
2022/03/12 08:01:48;;;;;;;7.25;3.00;;;17.00;29.80;16.10;101441.00;;;;5053862;28;20062;-64
2022/03/12 08:04:35;;;;;;;8.85;3.88;;;17.00;29.70;16.10;101429.00;;;;5058392;28;20453;-64
2022/03/12 08:07:21;;;;;;;8.02;3.85;;;17.00;29.80;16.10;101432.00;;;;5058670;28;20098;-65
2022/03/12 08:10:08;;;;;;;6.07;3.10;;;17.00;29.70;16.10;101424.00;;;;5054561;28;20045;-64
2022/03/12 08:12:57;;;;;;;9.73;3.80;;;17.00;29.70;16.10;101432.00;;;;5049755;28;20261;-64
2022/03/12 08:15:45;;;;;;;6.05;3.85;;;17.00;29.80;16.10;101435.00;;;;5055348;28;20090;-65
2022/03/12 08:18:31;;;;;;;;;;;17.00;29.80;16.10;101437.00;;;;5051040;28;20474;-64
2022/03/12 08:21:17;;;;;;;4.93;3.30;;;17.00;29.90;16.10;101435.00;;;;5042484;28;19916;-64
2022/03/12 08:24:04;;;;;;;4.13;3.10;;;17.00;29.80;16.10;101432.00;;;;5054573;28;20474;-64
2022/03/12 08:26:51;;;;;;;5.18;3.70;;;17.00;29.80;16.10;101428.00;;;;5057809;28;20113;-64
2022/03/12 08:29:37;;;;;;;4.97;3.40;;;17.00;29.80;16.10;101426.00;;;;5056964;28;20040;-64
2022/03/12 08:32:23;;;;;;;8.10;3.92;;;17.00;29.80;16.10;101432.00;;;;5053896;28;20052;-65
2022/03/12 08:35:11;;;;;;;5.60;3.38;;;17.00;29.90;16.10;101421.00;;;;5052463;28;20164;-64
2022/03/12 08:37:57;;;;;;;;;;;17.00;29.90;16.10;101429.00;;;;5054693;28;20167;-64
2022/03/12 08:40:43;;;;;;;5.00;3.22;;;17.00;30.00;16.10;101427.00;;;;5051488;28;20248;-64
2022/03/12 08:43:30;;;;;;;6.20;3.72;;;17.00;29.90;16.10;101442.00;;;;5055808;28;20041;-64
2022/03/12 08:46:16;;;;;;;5.13;3.55;;;17.00;29.90;16.10;101447.00;;;;5057510;28;20648;-64
2022/03/12 08:49:03;;;;;;;6.20;3.33;;;17.10;29.90;16.10;101447.00;;;;5057957;28;20506;-64
2022/03/12 08:51:49;;;;;;;4.47;3.70;;;17.10;30.00;16.10;101436.00;;;;5053119;28;20044;-64
2022/03/12 08:54:35;;;;;;;21.60;6.43;;;17.10;30.10;16.20;101436.00;;;;5052479;28;20043;-64
2022/03/12 08:57:21;;;;;;;17.35;4.72;;;17.10;30.10;16.20;101437.00;;;;5057388;28;20490;-64
2022/03/12 09:00:10;;;;;;;8.02;3.75;;;17.10;30.20;16.20;101445.00;;;;5053959;28;20040;-64
2022/03/12 09:02:56;;;;;;;7.95;4.25;;;17.10;30.40;16.20;101448.00;;;;5041678;28;20092;-64
2022/03/12 09:05:43;;;;;;;5.50;3.78;;;17.10;30.30;16.20;101450.00;;;;5062450;28;20044;-64
2022/03/12 09:08:29;;;;;;;8.13;3.75;;;17.10;30.20;16.20;101446.00;;;;5041917;28;20409;-64
2022/03/12 09:11:17;;;;;;;6.25;3.80;;;17.10;30.10;16.20;101457.00;;;;5055603;28;20048;-64
2022/03/12 09:14:03;;;;;;;7.40;3.83;;;17.10;30.10;16.20;101460.00;;;;5037752;28;20049;-64
2022/03/12 09:16:49;;;;;;;4.65;3.55;;;17.20;30.20;16.20;101453.00;;;;5056818;28;20048;-64
2022/03/12 09:19:35;;;;;;;4.57;3.70;;;17.20;30.20;16.20;101453.00;;;;5054439;28;20044;-64
2022/03/12 09:22:23;;;;;;;5.00;3.67;;;17.20;30.20;16.20;101446.00;;;;5057893;28;20129;-64
2022/03/12 09:25:15;;;;;;;6.53;4.03;;;17.20;30.30;16.20;101453.00;;;;5053321;28;20053;-64
2022/03/12 09:28:01;;;;;;;5.80;3.83;;;17.20;30.30;16.20;101453.00;;;;5045364;28;20368;-64
2022/03/12 09:30:50;;;;;;;5.75;3.60;;;17.20;30.40;16.20;101451.00;;;;5055474;28;20054;-64
2022/03/12 09:33:38;;;;;;;4.55;3.17;;;17.20;30.40;16.30;101444.00;;;;5057392;28;20072;-64
2022/03/12 09:36:24;;;;;;;4.38;3.17;;;17.20;30.40;16.30;101449.00;;;;5057992;28;20744;-64
2022/03/12 09:39:10;;;;;;;4.93;3.50;;;17.20;30.50;16.30;101449.00;;;;5050773;28;20535;-65
2022/03/12 09:41:57;;;;;;;8.18;3.72;;;17.20;30.50;16.30;101461.00;;;;5039260;28;20627;-64
2022/03/12 09:44:43;;;;;;;4.15;3.45;;;17.20;30.60;16.30;101458.00;;;;5040455;28;20033;-64
2022/03/12 09:47:29;;;;;;;7.60;3.47;;;17.20;30.60;16.30;101452.00;;;;5047590;28;20049;-65
2022/03/12 09:50:15;;;;;;;5.55;3.25;;;17.30;30.80;16.30;101463.00;;;;5044829;28;20401;-64
2022/03/12 09:53:01;;;;;;;5.18;3.65;;;17.30;30.80;16.30;101462.00;;;;5056599;28;20470;-64
2022/03/12 09:55:47;;;;;;;6.13;3.42;;;17.30;31.60;16.30;101467.00;;;;5059262;28;20442;-65
2022/03/12 09:58:33;;;;;;;5.60;3.70;;;17.30;30.90;16.30;101463.00;;;;5057087;28;20051;-64
2022/03/12 10:01:19;;;;;;;4.82;3.25;;;17.30;31.00;16.30;101470.00;;;;5059528;28;20508;-64
2022/03/12 10:04:06;;;;;;;4.05;3.40;;;17.30;30.90;16.30;101469.00;;;;5056425;28;20056;-64
2022/03/12 10:06:53;;;;;;;4.43;3.35;;;17.30;31.10;16.30;101465.00;;;;5057692;28;20052;-64
2022/03/12 10:09:39;;;;;;;4.72;3.60;;;17.30;31.10;16.30;101471.00;;;;5046414;28;20040;-64
2022/03/12 10:12:25;;;;;;;5.63;3.75;;;17.30;31.20;16.30;101470.00;;;;5054100;28;20045;-64
2022/03/12 10:15:12;;;;;;;5.05;3.83;;;17.30;31.20;16.40;101483.00;;;;5056736;28;20522;-64
2022/03/12 10:17:59;;;;;;;4.93;3.42;;;17.30;31.30;16.30;101485.00;;;;5050353;28;20115;-64
2022/03/12 10:20:45;;;;;;;8.00;4.57;;;17.30;31.40;16.40;101491.00;;;;5042883;28;20043;-64
2022/03/12 10:23:31;;;;;;;4.45;3.33;;;17.40;31.50;16.40;101482.00;;;;5057029;28;20075;-65
2022/03/12 10:26:17;;;;;;;4.32;3.50;;;17.30;31.50;16.40;101484.00;;;;5057519;28;20097;-65
2022/03/12 10:29:06;;;;;;;5.50;3.70;;;17.30;32.20;16.40;101475.00;;;;5040011;28;20037;-64
2022/03/12 10:31:52;;;;;;;5.20;3.47;;;17.30;31.60;16.40;101474.00;;;;5049827;28;20510;-65
2022/03/12 10:34:39;;;;;;;5.47;3.58;;;17.40;31.70;16.40;101475.00;;;;5043168;28;20512;-64
2022/03/12 10:37:32;;;;;;;5.85;4.32;;;17.40;31.80;16.40;101483.00;;;;5055292;28;20047;-64
2022/03/12 10:40:25;;;;;;;6.53;3.15;;;17.30;31.90;16.40;101484.00;;;;5054362;28;20056;-64
2022/03/12 10:43:15;;;;;;;6.93;3.97;;;17.40;32.00;16.40;101488.00;;;;5051730;28;20044;-67
2022/03/12 10:46:01;;;;;;;8.43;4.10;;;17.40;32.10;16.40;101490.00;;;;5051454;28;20045;-72
2022/03/12 10:49:07;;;;;;;7.38;3.97;;;17.40;32.70;16.40;101487.00;;;;5026792;28;20210;-63
2022/03/12 10:51:56;;;;;;;12.65;4.40;;;17.40;32.90;16.40;101500.00;;;;5049947;28;20614;-63
2022/03/12 10:54:42;;;;;;;10.88;4.65;;;17.40;33.00;16.30;101498.00;;;;5038636;28;20044;-64
2022/03/12 10:57:28;;;;;;;7.15;4.72;;;17.40;33.50;16.30;101489.00;;;;5061244;28;20040;-63
2022/03/12 11:00:15;;;;;;;9.30;4.63;;;17.40;34.10;16.30;101494.00;;;;5059148;28;20064;-64
2022/03/12 11:03:04;;;;;;;10.23;4.45;;;17.40;34.20;16.30;101494.00;;;;5053129;28;20045;-64
2022/03/12 11:05:51;;;;;;;9.85;5.03;;;17.40;34.20;16.30;101489.00;;;;5039681;28;20052;-63
2022/03/12 11:08:38;;;;;;;11.10;4.82;;;17.40;34.50;16.30;101496.00;;;;5037342;28;20256;-64
2022/03/12 11:11:24;;;;;;;9.07;5.05;;;17.50;34.40;16.30;101499.00;;;;5053622;28;20064;-64
2022/03/12 11:14:18;;;;;;;8.40;4.40;;;17.40;34.50;16.30;101501.00;;;;5050640;28;20495;-63
2022/03/12 11:17:04;;;;;;;9.93;5.18;;;17.40;35.00;16.30;101506.00;;;;5056539;28;20041;-65
2022/03/12 11:19:53;;;;;;;15.88;4.97;;;17.40;35.00;16.30;101502.00;;;;5054864;28;20483;-63
2022/03/12 11:22:39;;;;;;;11.23;4.78;;;17.40;35.00;16.30;101504.00;;;;5041367;28;20040;-63
2022/03/12 11:25:25;;;;;;;8.27;4.97;;;17.50;35.60;16.30;101495.00;;;;5033182;28;20048;-64
2022/03/12 11:28:19;;;;;;;6.10;4.70;;;17.50;35.20;16.30;101499.00;;;;5045961;28;20041;-64
2022/03/12 11:31:07;;;;;;;6.65;4.32;;;17.40;35.50;16.30;101494.00;;;;5042851;28;20476;-63
2022/03/12 11:33:54;;;;;;;;;;;17.40;35.10;16.30;101499.00;;;;5027347;28;20067;-64
2022/03/12 11:36:42;;;;;;;7.72;4.95;;;17.60;34.60;16.30;101489.00;;;;5058587;28;20323;-64
2022/03/12 11:39:30;;;;;;;6.38;4.35;;;17.50;34.70;16.40;101489.00;;;;5055789;28;20041;-64
2022/03/12 11:42:22;;;;;;;7.95;4.40;;;17.50;34.80;16.40;101492.00;;;;5041702;28;20059;-63
2022/03/12 11:45:14;;;;;;;8.73;4.55;;;17.50;34.70;16.40;101496.00;;;;5045949;28;20090;-64
2022/03/12 11:48:00;;;;;;;6.35;3.97;;;17.50;34.80;16.40;101492.00;;;;5042109;28;20042;-65
2022/03/12 11:50:46;;;;;;;6.95;4.07;;;17.60;34.80;16.50;101487.00;;;;5052929;28;20227;-65
2022/03/12 11:53:37;;;;;;;7.10;4.20;;;17.50;34.80;16.50;101486.00;;;;5053482;28;20045;-65
2022/03/12 11:56:27;;;;;;;6.90;4.18;;;17.50;34.80;16.50;101482.00;;;;5055349;28;20041;-65
2022/03/12 11:59:13;;;;;;;10.27;4.85;;;17.60;34.90;16.50;101483.00;;;;5052600;28;20091;-65
2022/03/12 12:02:23;;;;;;;7.75;4.40;;;17.60;35.50;16.50;101477.00;;;;5039347;28;20072;-65
2022/03/12 12:05:12;;;;;;;11.20;4.50;;;17.60;35.70;16.50;101477.00;;;;5037257;28;20056;-65
2022/03/12 12:07:58;;;;;;;8.13;5.28;;;17.70;35.70;16.50;101476.00;;;;5054004;28;20477;-65
2022/03/12 12:10:45;;;;;;;8.23;5.28;;;17.70;36.30;16.50;101467.00;;;;5053136;28;20117;-65
2022/03/12 12:13:35;;;;;;;8.38;4.13;;;17.70;35.80;16.50;101464.00;;;;5052033;28;20048;-64
2022/03/12 12:16:22;;;;;;;15.25;4.40;;;17.70;35.80;16.50;101453.00;;;;5036486;28;20080;-65